Jacksonville, FL (32257)

8:16 PM EDT on August 04, 2015 (GMT -0400)
Pickwick Park | | Change Station
CLOSE
Current Station
Personal Weather Station
Location: Jacksonville, FL
Elevation: 30 ft
Nearby Weather Stations

Elev 30 ft 30.21 °N, 81.62 °W | Updated 23 seconds ago

Overcast
Overcast
79.7 °F
Feels Like 80 °F
N
2.0
Wind Variable Wind from SW
Gusts 2.0 mph

Today
High -- | Low -- °F
--% Chance of Precip.
Yesterday
High -- | Low -- °F
Precip. -- in
6:46 AM 8:17 PM
Waning Gibbous, 73% visible
Pressure 30.01 in
Visibility 10.0 miles
Clouds Few 1500 ft
Scattered Clouds 15000 ft
Overcast 21000 ft
Heat Index 80 °F
Dew Point 59 °F
Humidity 49%
Rainfall 0.20 in
Snow Depth Not available.
UV 0 out of 12
Pollen 4.80 out of 12
Air Quality Not available.
Flu Activity Not available.
METAR KNIP 042353Z 25003KT 10SM FEW015 SCT150 OVC210 28/24 A3003 RMK AO2 SLP163 T2 SET 60000 T02830239 10339 20272 55001 $

More Conditions Fewer Conditions

Pressure 30.01 in
Visibility 10.0 miles
Clouds Few 1500 ft
Scattered Clouds 15000 ft
Overcast 21000 ft
Heat Index 80 °F
Dew Point 59 °F
Humidity 49%
Rainfall 0.20 in
Snow Depth Not available.
UV 0 out of 12
Pollen 4.80 out of 12
Air Quality Not available.
Flu Activity Not available.
METAR KNIP 042353Z 25003KT 10SM FEW015 SCT150 OVC210 28/24 A3003 RMK AO2 SLP163 T2 SET 60000 T02830239 10339 20272 55001 $

More Conditions Fewer Conditions

10-Day Weather Forecast

×

Almanac

Astronomy

Aug. 04, 2015 Rise Set
Actual Time
Civil Twilight
Nautical Twilight
Astronomical Twilight
Moon
Length of Visible Light
Length of Day
Tomorrow will be .
, % of the Moon is Illuminated

Today's Extremes

State Highs State Lows

Community

WunderPhotos

Upload Photos

1,844,034 photos uploaded!

WunderBlogs® & News

Nearby

Air Quality

  Air Quality AQ Index Pollutant
Not available.

Snow Depth

Station Depth Elevation

Earthquake Activity

City Distance Mag. Time & Date
Minimum magnitude displayed is 2.5.

Coastal Water Temperatures

Place Temperature

Stations

Nearby Weather Stations

Station Location Temp. Windchill Dew Point Humidity Wind Precip. Elev Updated Type